createdAt,value
2022-11-24T00:02:19.110Z,2.23
2022-11-24T00:07:23.955Z,2.30
2022-11-24T00:12:27.543Z,1.60
2022-11-24T00:17:30.928Z,2.47
2022-11-24T00:22:35.689Z,2.50
2022-11-24T00:27:39.027Z,2.47
2022-11-24T00:32:42.348Z,2.33
2022-11-24T00:37:47.085Z,2.33
2022-11-24T00:42:50.604Z,2.30
2022-11-24T00:47:53.880Z,2.60
2022-11-24T00:52:58.564Z,3.17
2022-11-24T00:58:01.895Z,2.50
2022-11-24T01:03:05.631Z,2.33
2022-11-24T01:08:10.555Z,2.13
2022-11-24T01:13:13.950Z,2.20
2022-11-24T01:18:17.477Z,2.60
2022-11-24T01:23:22.329Z,2.03
2022-11-24T01:28:25.672Z,2.23
2022-11-24T01:33:29.388Z,2.80
2022-11-24T01:38:34.255Z,3.27
2022-11-24T01:43:37.545Z,2.77
2022-11-24T01:48:45.011Z,3.47
2022-11-24T01:53:53.576Z,2.80
2022-11-24T01:59:00.283Z,2.57
2022-11-24T02:04:07.129Z,2.80
2022-11-24T02:09:17.738Z,2.93
2022-11-24T02:14:23.357Z,2.60
2022-11-24T02:19:38.872Z,3.00
2022-11-24T02:24:48.737Z,2.37
2022-11-24T02:29:53.897Z,2.70
2022-11-24T02:35:02.529Z,2.40
2022-11-24T02:40:07.031Z,2.80
2022-11-24T02:45:13.197Z,2.67
2022-11-24T02:50:16.920Z,2.97
2022-11-24T02:55:20.455Z,3.10
2022-11-24T03:00:25.265Z,3.33
2022-11-24T03:05:28.580Z,2.57
2022-11-24T03:10:32.073Z,3.00
2022-11-24T03:15:37.576Z,3.53
2022-11-24T03:20:41.039Z,3.87
2022-11-24T03:25:44.405Z,3.13
2022-11-24T03:30:51.746Z,3.03
2022-11-24T03:35:55.925Z,3.23
2022-11-24T03:40:59.323Z,2.87
2022-11-24T03:46:04.071Z,2.80
2022-11-24T03:51:08.121Z,2.83
2022-11-24T03:56:11.445Z,2.70
2022-11-24T04:01:16.198Z,2.50
2022-11-24T04:06:19.570Z,2.70
2022-11-24T04:11:40.162Z,3.17
2022-11-24T04:16:44.848Z,2.63
2022-11-24T04:21:48.173Z,2.90
2022-11-24T04:26:51.688Z,2.87
2022-11-24T04:31:56.648Z,2.87
2022-11-24T04:37:00.014Z,2.53
2022-11-24T04:42:03.475Z,2.77
2022-11-24T04:47:08.279Z,2.97
2022-11-24T04:52:11.802Z,2.93
2022-11-24T04:57:17.809Z,2.90
2022-11-24T05:02:23.395Z,3.00
2022-11-24T05:07:26.781Z,2.73
2022-11-24T05:12:31.249Z,2.37
2022-11-24T05:17:39.579Z,2.13
2022-11-24T05:22:42.982Z,2.70
2022-11-24T05:27:46.562Z,2.50
2022-11-24T05:32:51.716Z,2.23
2022-11-24T05:37:55.289Z,2.23
2022-11-24T05:42:58.695Z,1.73
2022-11-24T05:48:08.307Z,2.13
2022-11-24T05:53:13.148Z,2.13
2022-11-24T05:58:16.677Z,1.73
2022-11-24T06:03:21.273Z,1.70
2022-11-24T06:08:30.710Z,2.10
2022-11-24T06:13:34.473Z,2.10
2022-11-24T06:18:39.906Z,1.60
2022-11-24T06:23:43.165Z,1.67
2022-11-24T06:28:46.411Z,2.10
2022-11-24T06:33:51.939Z,1.63
2022-11-24T06:38:55.672Z,1.70
2022-11-24T06:43:59.244Z,1.60
2022-11-24T06:49:04.256Z,1.63
2022-11-24T06:54:08.314Z,1.23
2022-11-24T06:59:19.005Z,1.50
2022-11-24T07:04:23.851Z,1.43
2022-11-24T07:09:27.220Z,1.53
2022-11-24T07:14:30.505Z,1.53
2022-11-24T07:19:35.170Z,1.57
2022-11-24T07:24:38.942Z,1.77
2022-11-24T07:29:42.384Z,1.37
2022-11-24T07:34:47.198Z,1.17
2022-11-24T07:39:50.542Z,1.43
2022-11-24T07:44:53.835Z,1.67
2022-11-24T07:49:58.636Z,1.30
2022-11-24T07:55:02.954Z,1.40
2022-11-24T08:00:07.181Z,1.30
2022-11-24T08:05:12.038Z,1.33
2022-11-24T08:10:15.607Z,1.57
2022-11-24T08:15:18.942Z,1.13
2022-11-24T08:20:24.458Z,1.37
2022-11-24T08:25:32.078Z,1.10
2022-11-24T08:30:35.694Z,1.03
2022-11-24T08:35:40.675Z,1.10
2022-11-24T08:40:43.946Z,0.83
2022-11-24T08:45:47.304Z,0.90
2022-11-24T08:50:52.171Z,0.97
2022-11-24T08:56:00.716Z,0.70
2022-11-24T09:01:10.396Z,1.00
2022-11-24T09:06:15.624Z,0.83
2022-11-24T09:11:19.811Z,1.00
2022-11-24T09:16:26.004Z,1.07
2022-11-24T09:21:31.591Z,1.10
2022-11-24T09:26:36.972Z,1.50
2022-11-24T09:31:40.485Z,1.20
2022-11-24T09:36:45.262Z,1.20
2022-11-24T09:42:16.688Z,1.33
2022-11-24T09:47:27.720Z,1.00
2022-11-24T09:52:41.483Z,1.10
2022-11-24T09:57:45.260Z,1.10
2022-11-24T10:02:51.165Z,1.43
2022-11-24T10:08:04.754Z,1.30
2022-11-24T10:13:20.386Z,1.40
2022-11-24T10:18:39.363Z,1.40
2022-11-24T10:23:57.658Z,1.57
2022-11-24T10:29:01.083Z,1.53
2022-11-24T10:34:13.840Z,1.33
2022-11-24T10:39:24.855Z,1.33
2022-11-24T10:44:28.274Z,1.80
2022-11-24T10:49:33.908Z,1.77
2022-11-24T10:54:55.769Z,1.57
2022-11-24T10:59:59.411Z,1.40
2022-11-24T11:05:29.445Z,1.73
2022-11-24T11:10:34.197Z,1.73
2022-11-24T11:15:38.261Z,1.40
2022-11-24T11:20:41.563Z,1.53
2022-11-24T11:25:46.536Z,1.50
2022-11-24T11:36:23.506Z,1.20
2022-11-24T11:41:33.721Z,1.33
2022-11-24T11:46:37.337Z,1.17
2022-11-24T11:51:53.862Z,1.40
2022-11-24T11:57:09.077Z,1.15
2022-11-24T12:02:53.321Z,1.08
2022-11-24T12:08:21.485Z,1.38
2022-11-24T12:13:51.492Z,1.53
2022-11-24T12:19:08.296Z,1.35
2022-11-24T12:24:20.030Z,1.58
2022-11-24T12:30:08.301Z,1.30
2022-11-24T12:35:21.805Z,1.58
2022-11-24T12:40:36.148Z,1.50
2022-11-24T12:45:49.500Z,1.55
2022-11-24T12:50:57.319Z,1.37
2022-11-24T12:56:08.685Z,1.05
2022-11-24T13:01:23.791Z,1.70
2022-11-24T13:06:35.023Z,1.42
2022-11-24T13:11:43.652Z,1.27
2022-11-24T13:22:26.772Z,1.25
2022-11-24T13:27:42.371Z,1.15
2022-11-24T13:33:00.332Z,1.30
2022-11-24T13:38:25.745Z,0.90
2022-11-24T13:43:30.403Z,0.88
2022-11-24T13:49:01.970Z,1.20
2022-11-24T13:54:12.219Z,1.42
2022-11-24T13:59:28.197Z,2.10
2022-11-24T14:04:43.151Z,1.17
2022-11-24T14:09:51.209Z,1.17
2022-11-24T14:15:22.298Z,1.15
2022-11-24T14:20:27.573Z,1.43
2022-11-24T14:25:35.271Z,1.20
2022-11-24T14:30:38.715Z,1.40
2022-11-24T14:35:45.906Z,1.27
2022-11-24T14:40:53.615Z,1.58
2022-11-24T14:45:58.910Z,1.48
2022-11-24T14:51:08.941Z,1.35
2022-11-24T14:56:24.533Z,1.80
2022-11-24T15:01:34.309Z,1.25
2022-11-24T15:06:37.857Z,1.40
2022-11-24T15:11:42.580Z,1.65
2022-11-24T15:16:46.051Z,1.88
2022-11-24T15:21:49.513Z,1.52
2022-11-24T15:27:00.516Z,1.48
2022-11-24T15:32:03.890Z,1.48
2022-11-24T15:37:07.210Z,1.30
2022-11-24T15:42:14.071Z,1.58
2022-11-24T15:47:17.492Z,1.70
2022-11-24T15:52:21.034Z,1.88
2022-11-24T15:57:26.008Z,1.85
2022-11-24T16:02:29.443Z,1.42
2022-11-24T16:07:33.300Z,1.58
2022-11-24T16:12:38.069Z,1.50
2022-11-24T16:17:41.551Z,1.60
2022-11-24T16:22:45.127Z,1.30
2022-11-24T16:27:49.827Z,1.52
2022-11-24T16:32:55.733Z,1.60
2022-11-24T16:37:59.382Z,1.67
2022-11-24T16:43:04.661Z,1.55
2022-11-24T16:48:08.110Z,1.40
2022-11-24T16:53:11.460Z,1.50
2022-11-24T16:58:16.258Z,1.70
2022-11-24T17:03:21.573Z,1.60
2022-11-24T17:08:26.397Z,1.42
2022-11-24T17:13:33.207Z,1.17
2022-11-24T17:18:36.949Z,1.10
2022-11-24T17:23:40.597Z,1.70
2022-11-24T17:28:46.010Z,1.33
2022-11-24T17:33:50.966Z,1.92
2022-11-24T17:38:55.651Z,1.10
2022-11-24T17:44:01.281Z,1.10
2022-11-24T17:49:07.111Z,1.50
2022-11-24T17:54:39.123Z,1.73
2022-11-24T17:59:39.257Z,1.40
2022-11-24T18:04:45.233Z,1.33
2022-11-24T18:09:51.540Z,1.45
2022-11-24T18:14:57.601Z,1.52
2022-11-24T18:20:02.290Z,1.60
2022-11-24T18:25:07.399Z,1.67
2022-11-24T18:30:13.393Z,1.90
2022-11-24T18:35:17.787Z,1.80
2022-11-24T18:40:23.168Z,1.58
2022-11-24T18:45:30.314Z,1.92
2022-11-24T18:50:38.748Z,1.92
2022-11-24T18:55:45.711Z,2.05
2022-11-24T19:00:57.379Z,2.10
2022-11-24T19:06:05.245Z,1.85
2022-11-24T19:11:10.008Z,1.80
2022-11-24T19:16:17.686Z,1.83
2022-11-24T19:21:24.356Z,1.88
2022-11-24T19:26:30.409Z,1.70
2022-11-24T19:31:40.080Z,1.73
2022-11-24T19:36:45.568Z,1.60
2022-11-24T19:41:50.157Z,1.40
2022-11-24T19:46:58.316Z,1.35
2022-11-24T19:52:03.848Z,1.60
2022-11-24T19:57:09.408Z,1.35
2022-11-24T20:02:17.982Z,1.27
2022-11-24T20:07:22.921Z,1.25
2022-11-24T20:12:27.415Z,1.30
2022-11-24T20:17:35.437Z,1.10
2022-11-24T20:22:41.117Z,1.50
2022-11-24T20:27:46.320Z,1.10
2022-11-24T20:32:53.860Z,1.38
2022-11-24T20:43:22.100Z,1.00
2022-11-24T20:48:28.262Z,1.30
2022-11-24T20:53:34.161Z,1.30
2022-11-24T20:58:39.742Z,1.40
2022-11-24T21:03:47.278Z,1.15
2022-11-24T21:08:52.274Z,1.02
2022-11-24T21:13:57.682Z,1.40
2022-11-24T21:19:23.758Z,1.10
2022-11-24T21:24:31.589Z,1.33
2022-11-24T21:29:35.454Z,1.42
2022-11-24T21:34:40.167Z,1.00
2022-11-24T21:39:44.680Z,1.17
2022-11-24T21:44:48.062Z,1.38
2022-11-24T21:49:52.831Z,0.95
2022-11-24T21:54:56.099Z,1.10
2022-11-24T21:59:59.417Z,1.17
2022-11-24T22:05:04.126Z,1.00
2022-11-24T22:10:08.887Z,1.00
2022-11-24T22:15:12.490Z,0.90
2022-11-24T22:20:17.489Z,0.77
2022-11-24T22:25:20.767Z,1.10
2022-11-24T22:30:24.108Z,1.27
2022-11-24T22:35:28.804Z,0.93
2022-11-24T22:40:32.249Z,0.90
2022-11-24T22:45:37.013Z,1.00
2022-11-24T22:50:42.940Z,1.00
2022-11-24T22:55:46.265Z,1.08
2022-11-24T23:00:49.551Z,1.02
2022-11-24T23:05:54.572Z,1.30
2022-11-24T23:11:02.073Z,1.08
2022-11-24T23:16:07.022Z,0.90
2022-11-24T23:21:13.611Z,1.23
2022-11-24T23:26:20.258Z,0.80
2022-11-24T23:31:27.581Z,0.98
2022-11-24T23:36:33.053Z,1.00
2022-11-24T23:41:36.387Z,1.10
2022-11-24T23:46:39.724Z,1.20
2022-11-24T23:51:44.367Z,1.20
2022-11-24T23:56:47.666Z,1.20
